createdAt,value
2017-07-18T00:00:52.658Z,17.20
2017-07-18T00:03:20.199Z,17.10
2017-07-18T00:05:48.493Z,16.90
2017-07-18T00:08:16.036Z,16.90
2017-07-18T00:10:43.560Z,16.80
2017-07-18T00:13:11.874Z,16.80
2017-07-18T00:15:39.403Z,16.80
2017-07-18T00:18:06.957Z,16.80
2017-07-18T00:20:35.272Z,16.80
2017-07-18T00:23:02.803Z,16.80
2017-07-18T00:25:30.341Z,16.90
2017-07-18T00:27:57.864Z,16.80
2017-07-18T00:30:25.403Z,16.80
2017-07-18T00:32:52.975Z,16.70
2017-07-18T00:35:20.519Z,16.70
2017-07-18T00:37:48.042Z,16.60
2017-07-18T00:40:15.581Z,16.50
2017-07-18T00:42:43.106Z,16.50
2017-07-18T00:45:10.657Z,16.50
2017-07-18T00:47:38.941Z,16.50
2017-07-18T00:50:06.496Z,16.50
2017-07-18T00:52:34.021Z,16.40
2017-07-18T00:55:01.544Z,16.50
2017-07-18T00:57:29.846Z,16.50
2017-07-18T00:59:57.370Z,16.50
2017-07-18T01:02:24.916Z,16.50
2017-07-18T01:04:52.438Z,16.50
2017-07-18T01:07:19.971Z,16.50
2017-07-18T01:09:47.500Z,16.50
2017-07-18T01:12:15.042Z,16.50
2017-07-18T01:14:43.336Z,16.50
2017-07-18T01:17:10.886Z,16.40
2017-07-18T01:19:38.407Z,16.50
2017-07-18T01:22:05.935Z,16.40
2017-07-18T01:24:34.248Z,16.40
2017-07-18T01:27:01.770Z,16.40
2017-07-18T01:29:29.304Z,16.30
2017-07-18T01:31:57.583Z,16.30
2017-07-18T01:34:25.129Z,16.30
2017-07-18T01:36:52.659Z,16.40
2017-07-18T01:39:20.208Z,16.30
2017-07-18T01:41:48.492Z,16.30
2017-07-18T01:44:16.008Z,16.30
2017-07-18T01:46:44.321Z,16.30
2017-07-18T01:49:11.838Z,16.30
2017-07-18T01:51:39.379Z,16.40
2017-07-18T01:54:06.903Z,16.30
2017-07-18T01:56:34.442Z,16.20
2017-07-18T01:59:01.979Z,16.10
2017-07-18T02:01:29.524Z,16.10
2017-07-18T02:03:57.042Z,16.10
2017-07-18T02:06:24.585Z,16.10
2017-07-18T02:08:52.108Z,16.10
2017-07-18T02:11:19.640Z,16.10
2017-07-18T02:13:47.183Z,16.10
2017-07-18T02:16:14.708Z,16.00
2017-07-18T02:18:43.022Z,16.10
2017-07-18T02:21:11.333Z,16.00
2017-07-18T02:23:39.641Z,16.00
2017-07-18T02:26:07.159Z,16.00
2017-07-18T02:28:34.704Z,16.00
2017-07-18T02:31:02.228Z,16.00
2017-07-18T02:33:29.792Z,16.00
2017-07-18T02:35:57.314Z,16.00
2017-07-18T02:38:24.835Z,16.10
2017-07-18T02:40:52.379Z,16.00
2017-07-18T02:43:19.904Z,16.00
2017-07-18T02:45:48.216Z,16.00
2017-07-18T02:48:15.744Z,16.00
2017-07-18T02:50:44.042Z,15.90
2017-07-18T02:53:12.334Z,15.90
2017-07-18T02:55:39.871Z,15.90
2017-07-18T02:58:07.382Z,15.80
2017-07-18T03:00:34.924Z,15.80
2017-07-18T03:03:02.447Z,15.80
2017-07-18T03:05:30.007Z,15.80
2017-07-18T03:07:57.531Z,15.80
2017-07-18T03:10:25.047Z,15.80
2017-07-18T03:12:53.351Z,15.80
2017-07-18T03:15:20.870Z,15.80
2017-07-18T03:17:49.180Z,15.80
2017-07-18T03:20:17.467Z,15.80
2017-07-18T03:22:45.007Z,15.80
2017-07-18T03:25:13.295Z,15.70
2017-07-18T03:27:40.856Z,15.70
2017-07-18T03:30:08.379Z,15.60
2017-07-18T03:32:36.684Z,15.40
2017-07-18T03:35:04.208Z,15.40
2017-07-18T03:37:31.722Z,15.40
2017-07-18T03:39:59.259Z,15.40
2017-07-18T03:42:27.548Z,15.40
2017-07-18T03:44:55.087Z,15.40
2017-07-18T03:47:23.366Z,15.50
2017-07-18T03:49:50.904Z,15.50
2017-07-18T03:52:18.444Z,15.50
2017-07-18T03:54:45.984Z,15.50
2017-07-18T03:57:14.270Z,15.50
2017-07-18T03:59:41.822Z,15.50
2017-07-18T04:02:10.108Z,15.50
2017-07-18T04:04:37.626Z,15.50
2017-07-18T04:07:05.170Z,15.60
2017-07-18T04:09:32.683Z,15.70
2017-07-18T04:12:00.218Z,15.80
2017-07-18T04:14:27.744Z,15.90
2017-07-18T04:16:55.279Z,16.00
2017-07-18T04:19:22.801Z,16.10
2017-07-18T04:21:50.339Z,16.20
2017-07-18T04:24:17.851Z,16.40
2017-07-18T04:26:45.391Z,16.50
2017-07-18T04:29:12.905Z,16.70
2017-07-18T04:31:40.450Z,16.80
2017-07-18T04:34:07.968Z,16.90
2017-07-18T04:36:36.250Z,17.10
2017-07-18T04:39:04.551Z,17.40
2017-07-18T04:41:32.082Z,17.40
2017-07-18T04:43:59.614Z,17.70
2017-07-18T04:46:27.139Z,18.00
2017-07-18T04:48:54.679Z,18.30
2017-07-18T04:51:22.204Z,18.60
2017-07-18T04:53:49.744Z,18.90
2017-07-18T04:56:17.272Z,19.20
2017-07-18T04:58:44.832Z,19.60
2017-07-18T05:01:13.115Z,20.30
2017-07-18T05:03:40.638Z,20.30
2017-07-18T05:06:08.174Z,20.60
2017-07-18T05:08:35.689Z,21.00
2017-07-18T05:11:03.999Z,21.90
2017-07-18T05:13:31.518Z,21.90
2017-07-18T05:15:59.063Z,22.00
2017-07-18T05:18:27.352Z,22.00
2017-07-18T05:20:54.894Z,22.00
2017-07-18T05:23:22.414Z,22.00
2017-07-18T05:25:49.938Z,21.90
2017-07-18T05:28:17.476Z,21.70
2017-07-18T05:30:45.760Z,21.40
2017-07-18T05:33:13.303Z,21.40
2017-07-18T05:35:40.823Z,21.40
2017-07-18T05:38:09.132Z,21.50
2017-07-18T05:40:36.649Z,21.40
2017-07-18T05:43:04.941Z,22.00
2017-07-18T05:45:32.480Z,22.00
2017-07-18T05:47:59.994Z,22.70
2017-07-18T05:50:27.525Z,23.30
2017-07-18T05:52:55.065Z,23.80
2017-07-18T05:55:22.609Z,24.40
2017-07-18T05:57:50.123Z,24.60
2017-07-18T06:00:17.667Z,24.60
2017-07-18T06:02:45.186Z,24.40
2017-07-18T06:05:13.509Z,23.60
2017-07-18T06:07:41.787Z,23.70
2017-07-18T06:10:09.314Z,23.60
2017-07-18T06:12:37.623Z,24.30
2017-07-18T06:15:05.142Z,24.30
2017-07-18T06:17:33.445Z,24.20
2017-07-18T06:20:00.963Z,24.20
2017-07-18T06:22:28.505Z,24.20
2017-07-18T06:24:56.020Z,23.90
2017-07-18T06:27:23.563Z,23.80
2017-07-18T06:29:51.855Z,23.70
2017-07-18T06:32:19.397Z,23.70
2017-07-18T06:34:46.918Z,23.80
2017-07-18T06:37:14.457Z,24.00
2017-07-18T06:39:41.987Z,24.30
2017-07-18T06:42:09.504Z,24.80
2017-07-18T06:44:37.040Z,25.10
2017-07-18T06:47:04.564Z,25.10
2017-07-18T06:49:32.098Z,24.80
2017-07-18T06:51:59.606Z,24.70
2017-07-18T06:54:27.149Z,24.30
2017-07-18T06:56:54.676Z,24.20
2017-07-18T06:59:22.213Z,24.30
2017-07-18T07:01:50.555Z,24.50
2017-07-18T07:04:18.108Z,24.50
2017-07-18T07:06:45.626Z,24.80
2017-07-18T07:09:13.147Z,24.90
2017-07-18T07:11:40.683Z,25.40
2017-07-18T07:14:08.212Z,25.60
2017-07-18T07:16:35.762Z,25.80
2017-07-18T07:19:03.274Z,26.00
2017-07-18T07:21:30.835Z,25.90
2017-07-18T07:23:58.365Z,26.00
2017-07-18T07:26:25.904Z,26.20
2017-07-18T07:28:53.422Z,26.60
2017-07-18T07:31:20.963Z,27.20
2017-07-18T07:33:48.482Z,27.70
2017-07-18T07:36:16.009Z,27.80
2017-07-18T07:38:43.551Z,27.70
2017-07-18T07:41:11.059Z,27.90
2017-07-18T07:43:38.602Z,27.60
2017-07-18T07:46:06.117Z,27.70
2017-07-18T07:48:33.657Z,28.10
2017-07-18T07:51:01.175Z,28.50
2017-07-18T07:53:29.473Z,28.80
2017-07-18T07:55:56.996Z,28.70
2017-07-18T07:58:24.515Z,28.60
2017-07-18T08:00:52.054Z,28.60
2017-07-18T08:03:19.570Z,28.50
2017-07-18T08:05:47.118Z,28.30
2017-07-18T08:08:15.404Z,28.40
2017-07-18T08:10:42.948Z,28.30
2017-07-18T08:13:11.234Z,28.90
2017-07-18T08:15:38.785Z,28.90
2017-07-18T08:18:06.303Z,29.20
2017-07-18T08:20:33.853Z,29.10
2017-07-18T08:23:01.380Z,29.00
2017-07-18T08:25:28.930Z,28.60
2017-07-18T08:27:56.459Z,28.30
2017-07-18T08:30:23.978Z,28.00
2017-07-18T08:32:51.515Z,27.70
2017-07-18T08:35:19.034Z,27.80
2017-07-18T08:37:46.572Z,28.20
2017-07-18T08:40:14.094Z,28.60
2017-07-18T08:42:41.629Z,29.00
2017-07-18T08:45:09.910Z,29.60
2017-07-18T08:47:37.441Z,29.60
2017-07-18T08:50:04.950Z,29.80
2017-07-18T08:52:32.491Z,30.20
2017-07-18T08:55:00.007Z,30.60
2017-07-18T08:57:27.547Z,30.60
2017-07-18T08:59:55.834Z,29.80
2017-07-18T09:02:23.349Z,29.80
2017-07-18T09:04:51.651Z,30.30
2017-07-18T09:07:19.172Z,30.20
2017-07-18T09:09:46.717Z,29.70
2017-07-18T09:12:14.239Z,29.80
2017-07-18T09:14:42.544Z,30.50
2017-07-18T09:17:10.060Z,30.40
2017-07-18T09:19:37.599Z,30.70
2017-07-18T09:22:05.122Z,30.90
2017-07-18T09:24:32.670Z,30.60
2017-07-18T09:27:00.199Z,30.70
2017-07-18T09:29:27.727Z,30.90
2017-07-18T09:31:55.267Z,31.10
2017-07-18T09:34:23.551Z,31.50
2017-07-18T09:36:51.873Z,31.60
2017-07-18T09:39:19.391Z,31.60
2017-07-18T09:41:47.689Z,30.80
2017-07-18T09:44:15.212Z,30.80
2017-07-18T09:46:43.521Z,31.30
2017-07-18T09:49:11.045Z,31.30
2017-07-18T09:51:38.582Z,31.60
2017-07-18T09:54:06.109Z,31.70
2017-07-18T09:56:33.679Z,31.20
2017-07-18T09:59:01.221Z,30.60
2017-07-18T10:01:28.738Z,30.60
2017-07-18T10:03:56.581Z,30.90
2017-07-18T10:06:24.866Z,31.30
2017-07-18T10:08:52.404Z,31.30
2017-07-18T10:11:19.918Z,31.50
2017-07-18T10:13:47.463Z,31.40
2017-07-18T10:16:14.981Z,31.50
2017-07-18T10:18:43.271Z,31.80
2017-07-18T10:21:11.574Z,32.40
2017-07-18T10:23:39.096Z,32.30
2017-07-18T10:26:06.631Z,33.10
2017-07-18T10:28:34.147Z,34.10
2017-07-18T10:31:02.456Z,33.90
2017-07-18T10:33:29.970Z,33.80
2017-07-18T10:35:57.510Z,33.60
2017-07-18T10:38:25.027Z,33.80
2017-07-18T10:40:52.561Z,34.10
2017-07-18T10:43:20.079Z,34.40
2017-07-18T10:45:47.617Z,34.40
2017-07-18T10:48:15.133Z,34.00
2017-07-18T10:50:42.671Z,33.20
2017-07-18T10:53:10.210Z,32.40
2017-07-18T10:55:38.494Z,32.10
2017-07-18T10:58:06.047Z,32.10
2017-07-18T11:00:33.564Z,32.00
2017-07-18T11:03:01.876Z,30.60
2017-07-18T11:05:29.393Z,30.60
2017-07-18T11:07:56.935Z,30.30
2017-07-18T11:10:24.450Z,30.20
2017-07-18T11:12:51.995Z,31.00
2017-07-18T11:15:19.510Z,32.00
2017-07-18T11:17:47.027Z,32.90
2017-07-18T11:20:14.562Z,33.00
2017-07-18T11:22:42.086Z,32.40
2017-07-18T11:25:09.623Z,31.80
2017-07-18T11:27:37.149Z,31.20
2017-07-18T11:30:04.690Z,30.70
2017-07-18T11:32:32.216Z,30.30
2017-07-18T11:34:59.754Z,30.00
2017-07-18T11:37:27.270Z,29.80
2017-07-18T11:39:54.834Z,30.20
2017-07-18T11:42:22.358Z,30.90
2017-07-18T11:44:49.883Z,31.70
2017-07-18T11:47:17.421Z,32.60
2017-07-18T11:49:44.938Z,33.40
2017-07-18T11:52:13.237Z,33.80
2017-07-18T11:54:40.751Z,33.80
2017-07-18T11:57:08.293Z,34.00
2017-07-18T11:59:35.811Z,34.40
2017-07-18T12:02:03.345Z,34.70
2017-07-18T12:04:30.862Z,35.20
2017-07-18T12:06:58.393Z,35.20
2017-07-18T12:09:25.906Z,35.20
2017-07-18T12:11:53.438Z,35.30
2017-07-18T12:14:20.960Z,35.20
2017-07-18T12:16:48.502Z,35.10
2017-07-18T12:19:16.018Z,35.10
2017-07-18T12:21:43.539Z,35.00
2017-07-18T12:24:11.087Z,34.60
2017-07-18T12:26:38.611Z,34.40
2017-07-18T12:29:06.159Z,34.50
2017-07-18T12:31:33.677Z,35.00
2017-07-18T12:34:01.217Z,35.60
2017-07-18T12:36:29.501Z,36.20
2017-07-18T12:38:57.043Z,36.10
2017-07-18T12:41:24.598Z,35.40
2017-07-18T12:43:52.145Z,34.60
2017-07-18T12:46:19.664Z,34.20
2017-07-18T12:48:47.192Z,34.00
2017-07-18T12:51:14.769Z,33.80
2017-07-18T12:53:42.312Z,33.60
2017-07-18T12:56:09.885Z,33.30
2017-07-18T12:58:37.398Z,32.90
2017-07-18T13:01:05.703Z,32.30
2017-07-18T13:03:33.219Z,32.30
2017-07-18T13:06:00.763Z,31.80
2017-07-18T13:08:28.282Z,31.50
2017-07-18T13:10:55.816Z,31.60
2017-07-18T13:13:24.099Z,32.30
2017-07-18T13:15:51.642Z,32.30
2017-07-18T13:18:19.162Z,32.80
2017-07-18T13:20:46.682Z,33.20
2017-07-18T13:23:14.224Z,33.30
2017-07-18T13:25:41.742Z,32.90
2017-07-18T13:28:09.299Z,32.50
2017-07-18T13:30:36.831Z,31.80
2017-07-18T13:33:04.367Z,31.10
2017-07-18T13:35:31.895Z,30.90
2017-07-18T13:37:59.437Z,31.30
2017-07-18T13:40:26.960Z,31.70
2017-07-18T13:42:54.509Z,32.20
2017-07-18T13:45:22.031Z,32.80
2017-07-18T13:47:50.316Z,34.00
2017-07-18T13:50:17.863Z,33.90
2017-07-18T13:52:45.387Z,33.90
2017-07-18T13:55:12.923Z,32.80
2017-07-18T13:57:40.444Z,32.10
2017-07-18T14:00:07.984Z,31.50
2017-07-18T14:02:35.506Z,30.90
2017-07-18T14:05:03.056Z,30.80
2017-07-18T14:07:30.580Z,31.10
2017-07-18T14:09:58.870Z,31.70
2017-07-18T14:12:26.413Z,31.80
2017-07-18T14:14:53.936Z,32.10
2017-07-18T14:17:22.250Z,32.30
2017-07-18T14:19:49.770Z,32.30
2017-07-18T14:22:18.081Z,31.90
2017-07-18T14:24:45.600Z,31.90
2017-07-18T14:27:13.146Z,31.90
2017-07-18T14:29:40.662Z,31.80
2017-07-18T14:32:08.181Z,31.80
2017-07-18T14:34:35.713Z,31.80
2017-07-18T14:37:03.234Z,31.60
2017-07-18T14:39:30.778Z,31.00
2017-07-18T14:41:58.313Z,30.50
2017-07-18T14:44:25.851Z,30.10
2017-07-18T14:46:53.370Z,30.20
2017-07-18T14:49:20.905Z,30.40
2017-07-18T14:51:48.418Z,30.70
2017-07-18T14:54:16.731Z,31.20
2017-07-18T14:56:44.262Z,31.10
2017-07-18T14:59:11.780Z,31.40
2017-07-18T15:01:39.313Z,31.70
2017-07-18T15:04:06.833Z,31.70
2017-07-18T15:06:34.366Z,31.60
2017-07-18T15:09:01.883Z,31.40
2017-07-18T15:11:29.418Z,31.20
2017-07-18T15:13:56.938Z,31.10
2017-07-18T15:16:24.470Z,31.20
2017-07-18T15:18:51.989Z,31.40
2017-07-18T15:21:19.550Z,31.10
2017-07-18T15:23:47.074Z,30.70
2017-07-18T15:26:14.597Z,30.40
2017-07-18T15:28:42.130Z,30.40
2017-07-18T15:31:09.657Z,30.40
2017-07-18T15:33:37.191Z,30.40
2017-07-18T15:36:04.706Z,30.50
2017-07-18T15:38:32.239Z,30.50
2017-07-18T15:40:59.757Z,30.50
2017-07-18T15:43:27.302Z,30.40
2017-07-18T15:45:54.822Z,30.50
2017-07-18T15:48:22.383Z,30.50
2017-07-18T15:50:49.898Z,30.70
2017-07-18T15:53:17.414Z,30.50
2017-07-18T15:55:44.954Z,30.40
2017-07-18T15:58:12.471Z,30.30
2017-07-18T16:00:40.005Z,30.20
2017-07-18T16:03:07.517Z,30.20
2017-07-18T16:05:35.058Z,30.10
2017-07-18T16:08:02.573Z,30.00
2017-07-18T16:10:30.114Z,29.90
2017-07-18T16:12:57.634Z,29.80
2017-07-18T16:15:25.177Z,29.80
2017-07-18T16:17:52.691Z,29.70
2017-07-18T16:20:20.206Z,29.70
2017-07-18T16:22:48.518Z,29.60
2017-07-18T16:25:16.046Z,29.60
2017-07-18T16:27:43.584Z,29.40
2017-07-18T16:30:11.112Z,29.20
2017-07-18T16:32:38.651Z,29.10
2017-07-18T16:35:06.166Z,29.10
2017-07-18T16:37:33.719Z,29.20
2017-07-18T16:40:01.235Z,29.10
2017-07-18T16:42:28.755Z,29.10
2017-07-18T16:44:56.302Z,29.10
2017-07-18T16:47:23.824Z,29.10
2017-07-18T16:49:51.361Z,29.00
2017-07-18T16:52:19.641Z,28.80
2017-07-18T16:54:47.946Z,28.60
2017-07-18T16:57:15.476Z,28.60
2017-07-18T16:59:43.786Z,28.40
2017-07-18T17:02:11.307Z,28.40
2017-07-18T17:04:38.825Z,28.40
2017-07-18T17:07:07.131Z,28.30
2017-07-18T17:09:34.647Z,28.30
2017-07-18T17:12:02.179Z,28.30
2017-07-18T17:14:29.712Z,28.30
2017-07-18T17:16:57.252Z,28.30
2017-07-18T17:19:24.777Z,28.20
2017-07-18T17:21:52.320Z,28.20
2017-07-18T17:24:19.842Z,28.10
2017-07-18T17:26:47.385Z,28.10
2017-07-18T17:29:14.908Z,28.10
2017-07-18T17:31:42.430Z,28.00
2017-07-18T17:34:09.972Z,28.00
2017-07-18T17:36:37.494Z,27.90
2017-07-18T17:39:05.036Z,27.90
2017-07-18T17:41:32.551Z,27.70
2017-07-18T17:44:00.086Z,27.60
2017-07-18T17:46:27.620Z,27.50
2017-07-18T17:48:55.922Z,27.20
2017-07-18T17:51:23.441Z,27.20
2017-07-18T17:53:50.986Z,27.10
2017-07-18T17:56:18.512Z,27.00
2017-07-18T17:58:46.061Z,26.90
2017-07-18T18:01:14.374Z,26.70
2017-07-18T18:03:41.889Z,26.70
2017-07-18T18:06:09.422Z,26.60
2017-07-18T18:08:36.939Z,26.40
2017-07-18T18:11:04.477Z,26.30
2017-07-18T18:13:32.003Z,26.10
2017-07-18T18:15:59.547Z,26.00
2017-07-18T18:18:27.079Z,25.90
2017-07-18T18:20:54.626Z,25.80
2017-07-18T18:23:22.905Z,25.60
2017-07-18T18:25:50.419Z,25.60
2017-07-18T18:28:18.722Z,25.40
2017-07-18T18:30:46.244Z,25.40
2017-07-18T18:33:14.547Z,25.10
2017-07-18T18:35:42.070Z,25.10
2017-07-18T18:38:09.602Z,25.10
2017-07-18T18:40:37.895Z,24.80
2017-07-18T18:43:05.450Z,24.80
2017-07-18T18:45:32.970Z,24.70
2017-07-18T18:48:00.491Z,24.50
2017-07-18T18:50:28.031Z,24.50
2017-07-18T18:52:56.322Z,24.30
2017-07-18T18:55:23.862Z,24.30
2017-07-18T18:57:52.147Z,24.00
2017-07-18T19:00:20.450Z,23.90
2017-07-18T19:02:47.969Z,23.80
2017-07-18T19:05:15.509Z,23.80
2017-07-18T19:07:43.026Z,23.60
2017-07-18T19:10:10.582Z,23.40
2017-07-18T19:12:38.110Z,23.30
2017-07-18T19:15:05.629Z,23.30
2017-07-18T19:17:33.165Z,23.20
2017-07-18T19:20:00.687Z,23.20
2017-07-18T19:22:28.230Z,23.20
2017-07-18T19:24:55.756Z,23.10
2017-07-18T19:27:23.294Z,23.10
2017-07-18T19:29:50.819Z,23.00
2017-07-18T19:32:19.123Z,22.80
2017-07-18T19:34:46.651Z,22.80
2017-07-18T19:37:15.000Z,22.60
2017-07-18T19:39:42.522Z,22.60
2017-07-18T19:42:10.042Z,22.50
2017-07-18T19:44:38.345Z,22.30
2017-07-18T19:47:05.875Z,22.30
2017-07-18T19:49:33.420Z,22.20
2017-07-18T19:52:00.938Z,22.20
2017-07-18T19:54:28.478Z,22.10
2017-07-18T19:56:56.003Z,22.00
2017-07-18T19:59:24.307Z,22.00
2017-07-18T20:01:51.841Z,21.90
2017-07-18T20:04:19.385Z,21.90
2017-07-18T20:06:47.675Z,21.90
2017-07-18T20:09:15.960Z,21.80
2017-07-18T20:11:43.503Z,21.70
2017-07-18T20:14:11.790Z,21.60
2017-07-18T20:16:39.329Z,21.60
2017-07-18T20:19:06.844Z,21.60
2017-07-18T20:21:34.382Z,21.60
2017-07-18T20:24:01.897Z,21.60
2017-07-18T20:26:29.444Z,21.60
2017-07-18T20:28:56.958Z,21.60
2017-07-18T20:31:24.918Z,21.70
2017-07-18T20:33:52.474Z,21.70
2017-07-18T20:36:20.754Z,21.70
2017-07-18T20:38:49.063Z,21.50
2017-07-18T20:41:16.580Z,21.50
2017-07-18T20:43:44.110Z,21.40
2017-07-18T20:46:11.623Z,21.20
2017-07-18T20:48:39.930Z,21.10
2017-07-18T20:51:07.463Z,21.20
2017-07-18T20:53:34.998Z,21.10
2017-07-18T20:56:02.519Z,21.20
2017-07-18T20:58:30.073Z,21.20
2017-07-18T21:00:57.593Z,21.10
2017-07-18T21:03:25.119Z,21.10
2017-07-18T21:05:52.658Z,21.00
2017-07-18T21:08:20.178Z,20.90
2017-07-18T21:10:47.713Z,20.70
2017-07-18T21:13:15.240Z,20.60
2017-07-18T21:15:42.781Z,20.60
2017-07-18T21:18:11.070Z,20.60
2017-07-18T21:20:39.367Z,20.60
2017-07-18T21:23:06.887Z,20.60
2017-07-18T21:25:34.436Z,20.50
2017-07-18T21:28:01.954Z,20.40
2017-07-18T21:30:30.237Z,20.30
2017-07-18T21:32:58.535Z,20.30
2017-07-18T21:35:26.054Z,20.30
2017-07-18T21:37:53.598Z,20.30
2017-07-18T21:40:21.122Z,20.30
2017-07-18T21:42:48.667Z,20.30
2017-07-18T21:45:16.192Z,20.30
2017-07-18T21:47:44.509Z,19.90
2017-07-18T21:50:12.039Z,19.90
2017-07-18T21:52:40.329Z,19.80
2017-07-18T21:55:07.893Z,19.80
2017-07-18T21:57:35.428Z,19.80
2017-07-18T22:00:02.970Z,19.80
2017-07-18T22:02:30.495Z,19.70
2017-07-18T22:04:58.047Z,19.60
2017-07-18T22:07:25.569Z,19.60
2017-07-18T22:09:53.125Z,19.60
2017-07-18T22:12:20.671Z,19.40
2017-07-18T22:14:48.187Z,19.40
2017-07-18T22:17:16.499Z,19.40
2017-07-18T22:19:44.027Z,19.40
2017-07-18T22:22:11.575Z,19.40
2017-07-18T22:24:39.102Z,19.30
2017-07-18T22:27:07.429Z,19.20
2017-07-18T22:29:34.945Z,19.10
2017-07-18T22:32:02.481Z,19.10
2017-07-18T22:34:30.772Z,19.00
2017-07-18T22:36:58.325Z,19.00
2017-07-18T22:39:26.610Z,19.10
2017-07-18T22:41:54.142Z,19.00
2017-07-18T22:44:21.678Z,19.00
2017-07-18T22:46:49.201Z,18.90
2017-07-18T22:49:16.747Z,18.80
2017-07-18T22:51:44.271Z,18.80
2017-07-18T22:54:11.811Z,18.80
2017-07-18T22:56:39.330Z,18.90
2017-07-18T22:59:07.642Z,19.00
2017-07-18T23:01:35.162Z,19.00
2017-07-18T23:04:02.686Z,19.10
2017-07-18T23:06:30.225Z,19.00
2017-07-18T23:08:58.502Z,19.00
2017-07-18T23:11:26.039Z,19.00
2017-07-18T23:13:53.563Z,18.90
2017-07-18T23:16:21.098Z,18.90
2017-07-18T23:18:48.611Z,18.90
2017-07-18T23:21:16.174Z,18.80
2017-07-18T23:23:43.691Z,18.90
2017-07-18T23:26:11.229Z,18.90
2017-07-18T23:28:38.748Z,18.90
2017-07-18T23:31:06.271Z,18.90
2017-07-18T23:33:33.818Z,19.00
2017-07-18T23:36:01.335Z,19.00
2017-07-18T23:38:28.883Z,19.00
2017-07-18T23:40:56.399Z,19.00
2017-07-18T23:43:23.944Z,19.00
2017-07-18T23:45:51.466Z,18.90
2017-07-18T23:48:19.012Z,18.80
2017-07-18T23:50:46.535Z,18.90
2017-07-18T23:53:14.054Z,19.00
2017-07-18T23:55:41.593Z,18.90
2017-07-18T23:58:09.122Z,18.90
